Time;durP1;ratioP1;P1;durP2;ratioP2;P2;SDS_P1;SDS_P2;PMS_P1;PMS_P2;Temp;Humidity;BMP_temperature;BMP_pressure;BME280_temperature;BME280_humidity;BME280_pressure;Samples;Min_cycle;Max_cycle;Signal;HPM_P1;HPM_P2
2022/09/29 00:01:01;;;;;;;31.90;18.10;;;;;;;7.10;100.00;99656.28;5026237;28;20033;-87
2022/09/29 00:03:27;;;;;;;30.77;17.65;;;;;;;7.04;100.00;99650.50;5040444;28;20598;-87
2022/09/29 00:05:54;;;;;;;33.13;18.55;;;;;;;7.13;100.00;99658.75;5025303;28;20033;-87
2022/09/29 00:08:23;;;;;;;29.40;18.70;;;;;;;7.09;100.00;99656.41;5040019;28;20036;-87
2022/09/29 00:10:48;;;;;;;34.03;18.95;;;;;;;7.08;100.00;99662.84;5047126;28;20033;-87
2022/09/29 00:13:15;;;;;;;28.67;17.58;;;;;;;6.90;100.00;99638.91;5057880;28;20039;-87
2022/09/29 00:15:41;;;;;;;30.08;17.30;;;;;;;7.04;100.00;99656.81;5008403;28;20021;-87
2022/09/29 00:18:08;;;;;;;33.40;18.48;;;;;;;6.96;100.00;99651.13;5057093;28;20040;-87
2022/09/29 00:20:34;;;;;;;26.20;17.35;;;;;;;6.76;100.00;99634.63;5044850;28;20049;-87
2022/09/29 00:23:00;;;;;;;31.05;17.40;;;;;;;6.89;100.00;99658.09;5045805;28;20044;-87
2022/09/29 00:25:26;;;;;;;31.83;17.85;;;;;;;6.83;100.00;99648.56;5043330;28;20044;-87
2022/09/29 00:27:51;;;;;;;43.17;17.65;;;;;;;6.87;100.00;99655.50;5025551;28;20139;-87
2022/09/29 00:30:17;;;;;;;29.92;17.20;;;;;;;6.87;100.00;99655.50;5031976;28;20551;-87
2022/09/29 00:32:43;;;;;;;28.70;18.40;;;;;;;6.91;100.00;99658.81;5043454;28;20116;-87
2022/09/29 00:35:09;;;;;;;30.73;18.08;;;;;;;6.76;100.00;99642.78;5043290;28;20076;-87
2022/09/29 00:37:35;;;;;;;32.42;17.92;;;;;;;6.88;100.00;99653.63;5038006;28;20085;-87
2022/09/29 00:40:03;;;;;;;28.50;18.08;;;;;;;6.86;100.00;99652.91;5061511;28;20040;-87
2022/09/29 00:42:31;;;;;;;26.95;16.35;;;;;;;6.58;100.00;99645.16;5044147;28;20032;-86
2022/09/29 00:45:17;;;;;;;29.77;17.25;;;;;;;6.67;100.00;99659.84;5026750;28;20029;-87
2022/09/29 00:47:46;;;;;;;29.85;16.92;;;;;;;6.60;100.00;99658.63;5044016;28;20033;-87
2022/09/29 00:50:35;;;;;;;29.95;17.15;;;;;;;6.52;100.00;99647.53;5044168;28;20025;-87
2022/09/29 00:53:02;;;;;;;37.35;18.05;;;;;;;6.50;100.00;99653.09;5059926;28;20067;-87
2022/09/29 00:55:35;;;;;;;36.67;18.10;;;;;;;6.47;100.00;99657.91;5060842;28;20033;-87
2022/09/29 00:58:12;;;;;;;29.40;18.05;;;;;;;6.50;100.00;99652.22;5045880;28;20024;-87
2022/09/29 01:00:39;;;;;;;32.20;17.90;;;;;;;6.50;100.00;99653.09;5044951;28;20033;-87
2022/09/29 01:03:12;;;;;;;35.85;19.85;;;;;;;6.54;100.00;99654.56;5011283;28;20036;-87
2022/09/29 01:05:41;;;;;;;34.88;19.05;;;;;;;6.40;100.00;99631.22;5059013;28;20041;-87
2022/09/29 01:08:15;;;;;;;27.88;18.85;;;;;;;6.33;100.00;99629.13;5058721;28;20032;-88
2022/09/29 01:10:43;;;;;;;38.03;19.65;;;;;;;6.36;100.00;99640.63;5040129;28;20114;-88
2022/09/29 01:13:10;;;;;;;34.83;20.55;;;;;;;6.37;100.00;99642.34;5047968;28;20032;-88
2022/09/29 01:15:35;;;;;;;37.65;20.75;;;;;;;6.42;100.00;99645.53;5058058;28;20108;-87
2022/09/29 01:18:01;;;;;;;35.47;20.52;;;;;;;6.46;100.00;99653.44;5025943;28;20114;-87
2022/09/29 01:20:33;;;;;;;34.78;21.95;;;;;;;6.40;100.00;99655.69;5028328;28;20040;-87
2022/09/29 01:23:29;;;;;;;35.07;19.53;;;;;;;6.42;100.00;99648.25;5050739;28;20033;-88
2022/09/29 01:26:16;;;;;;;35.75;20.92;;;;;;;6.42;100.00;99648.25;5059283;28;20510;-87
2022/09/29 01:29:06;;;;;;;40.70;21.63;;;;;;;6.41;100.00;99654.72;5042007;28;20037;-87
2022/09/29 01:31:47;;;;;;;34.75;20.70;;;;;;;6.32;100.00;99644.56;5040542;28;20033;-88
2022/09/29 01:34:26;;;;;;;38.38;20.45;;;;;;;6.25;100.00;99652.34;5047115;28;20033;-87
2022/09/29 01:37:16;;;;;;;42.10;21.45;;;;;;;6.29;100.00;99663.84;5057484;28;20122;-87
2022/09/29 01:39:57;;;;;;;39.53;20.70;;;;;;;6.38;100.00;99657.66;5042518;28;20033;-87
2022/09/29 01:42:38;;;;;;;36.22;20.35;;;;;;;6.23;100.00;99667.94;5036331;28;20503;-87
2022/09/29 01:45:14;;;;;;;41.03;20.80;;;;;;;6.30;100.00;99671.03;5057006;28;20021;-87
2022/09/29 01:47:55;;;;;;;40.42;20.38;;;;;;;6.18;100.00;99670.16;5043121;28;20519;-87
2022/09/29 01:50:25;;;;;;;33.58;19.35;;;;;;;6.12;100.00;99667.94;5041439;28;20120;-86
2022/09/29 01:52:57;;;;;;;38.55;20.75;;;;;;;6.13;100.00;99666.06;5068915;28;20044;-86
2022/09/29 01:55:27;;;;;;;44.03;22.75;;;;;;;6.10;100.00;99663.59;5048671;28;20016;-86
2022/09/29 01:58:03;;;;;;;36.10;20.60;;;;;;;6.07;100.00;99670.16;5049681;28;20033;-86
2022/09/29 02:00:34;;;;;;;41.40;21.05;;;;;;;6.00;100.00;99669.78;5043467;28;20051;-86
2022/09/29 02:03:36;;;;;;;39.80;20.98;;;;;;;6.08;100.00;99663.72;5059077;28;20060;-86
2022/09/29 02:06:07;;;;;;;38.05;20.42;;;;;;;6.13;100.00;99661.47;5077700;28;20029;-86
2022/09/29 02:08:41;;;;;;;39.25;21.83;;;;;;;6.25;100.00;99665.09;5042516;28;20029;-86
2022/09/29 02:11:11;;;;;;;34.83;20.17;;;;;;;6.21;100.00;99669.03;5060238;28;20049;-86
2022/09/29 02:13:45;;;;;;;38.70;21.25;;;;;;;6.13;100.00;99663.34;5044346;28;20029;-85
2022/09/29 02:16:15;;;;;;;33.38;21.02;;;;;;;6.03;100.00;99660.50;5059523;28;20037;-85
2022/09/29 02:18:57;;;;;;;34.63;20.25;;;;;;;6.03;100.00;99668.66;5042919;28;20472;-85
2022/09/29 02:21:23;;;;;;;41.55;19.67;;;;;;;6.01;100.00;99666.06;5063705;28;20037;-87
2022/09/29 02:23:50;;;;;;;35.08;19.35;;;;;;;5.97;100.00;99647.38;5059158;28;20028;-86
2022/09/29 02:26:18;;;;;;;37.90;19.48;;;;;;;5.84;100.00;99651.06;5028955;28;20358;-85
2022/09/29 02:28:44;;;;;;;33.60;20.38;;;;;;;5.76;100.00;99639.94;5044797;28;20437;-85
2022/09/29 02:31:10;;;;;;;39.92;19.08;;;;;;;5.88;100.00;99647.09;5044514;28;20037;-85
2022/09/29 02:33:36;;;;;;;37.80;19.67;;;;;;;5.94;100.00;99672.09;5059346;28;20026;-85
2022/09/29 02:36:26;;;;;;;35.72;19.83;;;;;;;5.88;100.00;99685.13;5043158;28;20044;-86
2022/09/29 02:39:11;;;;;;;35.47;19.67;;;;;;;5.83;100.00;99672.91;5060270;28;20036;-85
2022/09/29 02:42:02;;;;;;;40.15;20.85;;;;;;;5.91;100.00;99675.88;5029643;28;20052;-85
2022/09/29 02:44:55;;;;;;;39.78;20.30;;;;;;;5.93;100.00;99671.19;5060474;28;20120;-86
2022/09/29 02:47:35;;;;;;;31.30;19.02;;;;;;;5.75;100.00;99672.66;5040166;28;20090;-87
2022/09/29 02:50:18;;;;;;;33.05;19.33;;;;;;;5.68;100.00;99675.84;5038812;28;20040;-87
2022/09/29 02:52:47;;;;;;;33.20;20.15;;;;;;;5.70;100.00;99673.84;5033645;28;20404;-87
2022/09/29 02:55:36;;;;;;;36.30;21.45;;;;;;;5.73;100.00;99669.19;5040883;28;20033;-87
2022/09/29 02:58:31;;;;;;;51.33;23.80;;;;;;;5.77;100.00;99665.25;5060346;28;20033;-87
2022/09/29 03:00:58;;;;;;;37.58;22.17;;;;;;;5.73;100.00;99674.63;5064605;28;20047;-87
2022/09/29 03:03:24;;;;;;;39.20;21.60;;;;;;;5.68;100.00;99677.69;5036723;28;20043;-87
2022/09/29 03:05:50;;;;;;;42.65;21.10;;;;;;;5.60;100.00;99672.84;5018207;28;20041;-86
2022/09/29 03:08:15;;;;;;;39.92;22.85;;;;;;;5.55;100.00;99669.63;5037541;28;20032;-86
2022/09/29 03:10:41;;;;;;;44.35;23.17;;;;;;;5.60;100.00;99670.13;5024255;28;20446;-86
2022/09/29 03:13:06;;;;;;;41.92;23.70;;;;;;;5.59;100.00;99673.84;5039717;28;20029;-86
2022/09/29 03:15:32;;;;;;;40.78;23.15;;;;;;;5.46;100.00;99649.50;5007051;28;20055;-87
2022/09/29 03:17:57;;;;;;;45.75;23.65;;;;;;;5.69;100.00;99672.16;5039717;28;20033;-86
2022/09/29 03:20:23;;;;;;;39.33;22.98;;;;;;;5.68;100.00;99673.13;5024936;28;20055;-86
2022/09/29 03:22:49;;;;;;;43.50;23.75;;;;;;;5.68;100.00;99667.69;5030397;28;20043;-86
2022/09/29 03:25:14;;;;;;;37.80;23.02;;;;;;;5.62;100.00;99670.88;5042718;28;20112;-85
2022/09/29 03:27:40;;;;;;;41.05;23.55;;;;;;;5.56;100.00;99660.53;5029189;28;20109;-84
2022/09/29 03:30:06;;;;;;;45.30;22.80;;;;;;;5.52;100.00;99653.56;5027108;28;20033;-85
2022/09/29 03:32:32;;;;;;;34.42;21.33;;;;;;;5.64;100.00;99666.22;5025082;28;20028;-86
2022/09/29 03:34:57;;;;;;;44.35;22.85;;;;;;;5.61;100.00;99671.88;5030771;28;20032;-85
2022/09/29 03:37:23;;;;;;;35.53;21.63;;;;;;;5.61;100.00;99671.03;5057039;28;20026;-86
2022/09/29 03:39:48;;;;;;;38.53;22.30;;;;;;;5.58;100.00;99663.97;5023283;28;20037;-86
2022/09/29 03:42:14;;;;;;;34.20;20.23;;;;;;;5.49;100.00;99643.84;5020343;28;20473;-86
2022/09/29 03:44:40;;;;;;;38.67;21.73;;;;;;;5.45;100.00;99677.63;5047579;28;20086;-86
2022/09/29 03:47:05;;;;;;;37.60;21.30;;;;;;;5.45;100.00;99669.47;5031179;28;20037;-86
2022/09/29 03:49:31;;;;;;;43.20;22.83;;;;;;;5.31;100.00;99664.25;5056287;28;20120;-86
2022/09/29 03:51:56;;;;;;;38.85;22.00;;;;;;;5.28;100.00;99669.91;5039802;28;20036;-86
2022/09/29 03:54:25;;;;;;;41.58;22.17;;;;;;;5.39;100.00;99675.38;5028506;28;20032;-85
2022/09/29 03:56:50;;;;;;;43.25;21.88;;;;;;;5.43;100.00;99670.59;5032705;28;20480;-85
2022/09/29 03:59:16;;;;;;;39.42;21.65;;;;;;;5.33;100.00;99654.16;5048436;28;20068;-85
2022/09/29 04:01:41;;;;;;;41.92;22.40;;;;;;;5.38;100.00;99673.66;5040940;28;20076;-86
2022/09/29 04:04:08;;;;;;;41.13;21.75;;;;;;;5.43;100.00;99676.88;5061981;28;20049;-88
2022/09/29 04:06:35;;;;;;;37.50;22.00;;;;;;;5.42;100.00;99679.72;5079939;28;20032;-86
2022/09/29 04:09:01;;;;;;;34.92;20.38;;;;;;;5.48;100.00;99685.53;5031900;28;20033;-86
2022/09/29 04:11:27;;;;;;;31.38;18.38;;;;;;;5.43;100.00;99678.75;5042954;28;20053;-86
2022/09/29 04:13:53;;;;;;;27.10;16.00;;;;;;;5.26;100.00;99680.91;5061060;28;20036;-86
2022/09/29 04:16:18;;;;;;;24.88;15.98;;;;;;;5.36;100.00;99691.03;5030378;28;20025;-86
2022/09/29 04:18:44;;;;;;;34.08;17.70;;;;;;;5.25;100.00;99687.31;5045875;28;20048;-86
2022/09/29 04:21:10;;;;;;;30.60;19.13;;;;;;;5.25;100.00;99690.00;5026941;28;20059;-86
2022/09/29 04:23:35;;;;;;;36.20;20.92;;;;;;;5.25;100.00;99687.31;5046074;28;20041;-85
2022/09/29 04:26:02;;;;;;;37.30;19.77;;;;;;;5.23;100.00;99689.28;5027404;28;20167;-85
2022/09/29 04:28:31;;;;;;;35.60;21.15;;;;;;;5.25;100.00;99690.00;5041667;28;20029;-86
2022/09/29 04:30:56;;;;;;;46.05;21.38;;;;;;;5.25;100.00;99689.16;5044289;28;20511;-85
2022/09/29 04:33:22;;;;;;;34.00;18.95;;;;;;;5.28;100.00;99694.31;5028925;28;20061;-84
2022/09/29 04:35:47;;;;;;;27.60;18.27;;;;;;;5.30;100.00;99686.94;5029653;28;20037;-84
2022/09/29 04:38:13;;;;;;;28.00;17.50;;;;;;;5.23;100.00;99694.69;5032175;28;20029;-85
2022/09/29 04:40:38;;;;;;;23.15;14.02;;;;;;;5.20;100.00;99702.19;5015610;28;20120;-85
2022/09/29 04:43:05;;;;;;;24.00;13.60;;;;;;;5.09;100.00;99706.56;5079067;28;20045;-85
2022/09/29 04:45:31;;;;;;;22.38;13.00;;;;;;;4.97;100.00;99704.78;5028341;28;20061;-84
2022/09/29 04:47:56;;;;;;;25.02;13.63;;;;;;;4.94;100.00;99707.72;5019714;28;20392;-84
2022/09/29 04:50:23;;;;;;;24.48;14.77;;;;;;;5.03;100.00;99717.03;5037651;28;20032;-85
2022/09/29 04:52:48;;;;;;;29.00;16.13;;;;;;;4.97;100.00;99704.78;5054195;28;20044;-84
2022/09/29 04:55:13;;;;;;;23.98;13.68;;;;;;;4.93;100.00;99714.13;5050302;28;20124;-83
2022/09/29 04:57:42;;;;;;;28.45;15.73;;;;;;;4.93;100.00;99706.84;5035669;28;20061;-84
2022/09/29 05:00:08;;;;;;;27.30;16.70;;;;;;;4.92;100.00;99710.56;5066268;28;20064;-84
2022/09/29 05:02:34;;;;;;;33.85;18.77;;;;;;;4.79;100.00;99715.16;5050519;28;20477;-84
2022/09/29 05:05:00;;;;;;;37.80;18.38;;;;;;;4.90;100.00;99717.94;5031385;28;20069;-83
2022/09/29 05:07:25;;;;;;;35.80;19.95;;;;;;;4.72;100.00;99690.34;5030205;28;20136;-84
2022/09/29 05:09:51;;;;;;;37.03;20.60;;;;;;;5.00;100.00;99720.84;5049196;28;20033;-84
2022/09/29 05:12:16;;;;;;;32.83;18.60;;;;;;;5.03;100.00;99720.59;5030954;28;20033;-83
2022/09/29 05:14:42;;;;;;;26.27;15.60;;;;;;;4.95;100.00;99723.91;5047385;28;20072;-82
2022/09/29 05:17:07;;;;;;;23.85;13.32;;;;;;;4.85;100.00;99730.94;5048743;28;20494;-82
2022/09/29 05:19:33;;;;;;;23.73;14.40;;;;;;;4.81;100.00;99725.91;5048133;28;20511;-83
2022/09/29 05:21:58;;;;;;;20.42;13.55;;;;;;;4.66;100.00;99711.63;5066390;28;20029;-83
2022/09/29 05:24:25;;;;;;;30.92;15.27;;;;;;;4.81;100.00;99724.03;5065588;28;20064;-84
2022/09/29 05:26:50;;;;;;;26.27;15.10;;;;;;;4.92;100.00;99732.25;5048432;28;20633;-84
2022/09/29 05:29:16;;;;;;;24.25;15.20;;;;;;;4.74;100.00;99717.34;5032656;28;20037;-83
2022/09/29 05:31:41;;;;;;;22.85;14.82;;;;;;;4.87;100.00;99739.88;5031778;28;20033;-82
2022/09/29 05:34:07;;;;;;;22.20;15.07;;;;;;;4.81;100.00;99734.03;5045538;28;20039;-83
2022/09/29 05:36:33;;;;;;;31.65;15.57;;;;;;;4.82;100.00;99735.75;5047305;28;20029;-83
2022/09/29 05:38:58;;;;;;;26.67;15.77;;;;;;;4.84;100.00;99744.63;5029268;28;20489;-83
2022/09/29 05:41:24;;;;;;;31.52;17.90;;;;;;;4.79;100.00;99734.13;5029353;28;20025;-83
2022/09/29 05:43:52;;;;;;;29.67;16.38;;;;;;;4.80;100.00;99752.13;5028741;28;20032;-82
2022/09/29 05:46:18;;;;;;;28.98;16.83;;;;;;;4.74;100.00;99755.31;5029369;28;20025;-83
2022/09/29 05:48:45;;;;;;;25.88;17.05;;;;;;;4.67;100.00;99735.03;5061989;28;20116;-83
2022/09/29 05:51:16;;;;;;;26.85;16.67;;;;;;;4.81;100.00;99751.16;5027530;28;20132;-84
2022/09/29 05:53:42;;;;;;;27.83;17.73;;;;;;;4.79;100.00;99748.56;5028399;28;20473;-84
2022/09/29 05:56:14;;;;;;;27.33;15.65;;;;;;;4.85;100.00;99751.78;5045361;28;20029;-84
2022/09/29 05:58:40;;;;;;;22.73;15.35;;;;;;;4.83;100.00;99760.03;5046819;28;20044;-84
2022/09/29 06:01:11;;;;;;;46.17;16.23;;;;;;;4.84;100.00;99760.91;5059017;28;20029;-84
2022/09/29 06:03:36;;;;;;;22.88;14.93;;;;;;;4.85;100.00;99763.50;5050650;28;20056;-84
2022/09/29 06:06:10;;;;;;;21.80;14.60;;;;;;;4.92;100.00;99767.50;5046599;28;20048;-84
2022/09/29 06:08:37;;;;;;;27.40;17.85;;;;;;;5.00;100.00;99764.25;5065735;28;20032;-83
2022/09/29 06:11:04;;;;;;;27.85;17.33;;;;;;;5.04;100.00;99771.16;5066634;28;20033;-84
2022/09/29 06:13:30;;;;;;;25.23;15.90;;;;;;;5.06;100.00;99779.19;5067869;28;20053;-80
2022/09/29 06:15:57;;;;;;;29.05;16.70;;;;;;;5.00;100.00;99774.22;5031667;28;20065;-83
2022/09/29 06:18:23;;;;;;;38.50;20.52;;;;;;;5.02;100.00;99775.84;5045816;28;20083;-82
2022/09/29 06:20:48;;;;;;;39.92;22.92;;;;;;;5.11;100.00;99777.00;5058676;28;20060;-83
2022/09/29 06:23:14;;;;;;;42.15;22.55;;;;;;;5.21;100.00;99775.31;5060415;28;20040;-84
2022/09/29 06:25:39;;;;;;;44.78;26.00;;;;;;;5.34;100.00;99769.84;5044116;28;20033;-85
2022/09/29 06:28:04;;;;;;;51.33;24.48;;;;;;;5.37;100.00;99769.63;5048989;28;20036;-85
2022/09/29 06:30:30;;;;;;;43.00;24.52;;;;;;;5.47;100.00;99767.94;5013438;28;20044;-86
2022/09/29 06:32:55;;;;;;;56.22;25.80;;;;;;;5.80;100.00;99777.22;5028256;28;20051;-84
2022/09/29 06:38:05;;;;;;;55.33;28.73;;;;;;;6.32;100.00;99785.06;5039939;28;20047;-84
2022/09/29 06:40:30;;;;;;;58.13;26.42;;;;;;;6.40;100.00;99782.59;5039417;28;20416;-84
2022/09/29 06:42:56;;;;;;;49.50;26.17;;;;;;;6.37;100.00;99778.28;5014754;28;20041;-85
2022/09/29 06:45:21;;;;;;;45.67;24.70;;;;;;;6.38;100.00;99793.59;5061918;28;20048;-85
2022/09/29 06:47:47;;;;;;;50.70;23.90;;;;;;;6.46;100.00;99787.56;5045468;28;20028;-84
2022/09/29 06:50:12;;;;;;;52.22;25.00;;;;;;;6.59;100.00;99779.28;5029506;28;20055;-86
2022/09/29 06:52:38;;;;;;;48.47;23.55;;;;;;;6.64;100.00;99787.97;5028678;28;20033;-86
2022/09/29 06:55:04;;;;;;;49.22;23.70;;;;;;;6.71;100.00;99794.63;5025608;28;20083;-86
2022/09/29 06:57:29;;;;;;;49.03;24.33;;;;;;;6.91;100.00;99790.28;5028524;28;20163;-85
2022/09/29 06:59:54;;;;;;;44.53;23.02;;;;;;;6.87;100.00;99794.25;5028109;28;20040;-84
2022/09/29 07:02:20;;;;;;;45.67;23.40;;;;;;;6.91;100.00;99789.44;5013829;28;20029;-85
2022/09/29 07:04:47;;;;;;;39.08;22.20;;;;;;;7.14;100.00;99793.00;5026529;28;20056;-84
2022/09/29 07:07:13;;;;;;;41.47;20.73;;;;;;;7.44;100.00;99803.19;5027681;28;20032;-85
2022/09/29 07:09:39;;;;;;;38.67;21.33;;;;;;;7.88;100.00;99806.75;5027559;28;20136;-85
2022/09/29 07:12:04;;;;;;;44.67;21.17;;;;;;;7.66;100.00;99807.72;5026512;28;20068;-85
2022/09/29 07:14:30;;;;;;;50.22;23.48;;;;;;;7.50;100.00;99808.13;5023346;28;20572;-85
2022/09/29 07:16:57;;;;;;;40.97;21.85;;;;;;;7.62;100.00;99805.38;5043042;28;20062;-84
2022/09/29 07:19:23;;;;;;;45.05;23.00;;;;;;;7.65;100.00;99816.88;5059659;28;20032;-85
2022/09/29 07:21:50;;;;;;;37.17;20.67;;;;;;;7.86;100.00;99822.38;5027506;28;20048;-85
2022/09/29 07:24:16;;;;;;;38.05;21.00;;;;;;;7.85;100.00;99830.69;5064097;28;20029;-87
2022/09/29 07:26:41;;;;;;;44.53;21.00;;;;;;;8.24;100.00;99828.28;5045347;28;20021;-86
2022/09/29 07:29:08;;;;;;;48.40;21.98;;;;;;;8.02;100.00;99826.56;5048199;28;20056;-86
2022/09/29 07:31:33;;;;;;;43.95;19.67;;;;;;;8.25;100.00;99825.44;5048543;28;20033;-86
2022/09/29 07:33:59;;;;;;;33.88;19.90;;;;;;;8.38;100.00;99830.69;5029038;28;20029;-85
2022/09/29 07:36:24;;;;;;;38.70;20.08;;;;;;;8.36;100.00;99827.25;5012006;28;20488;-85
2022/09/29 07:38:50;;;;;;;41.67;19.92;;;;;;;8.45;100.00;99844.69;5026223;28;20563;-86
2022/09/29 07:41:18;;;;;;;51.83;22.98;;;;;;;8.59;100.00;99835.28;5024317;28;20495;-86
2022/09/29 07:43:44;;;;;;;43.63;20.55;;;;;;;8.81;100.00;99829.69;5061011;28;20086;-86
2022/09/29 07:46:10;;;;;;;33.97;19.73;;;;;;;8.94;100.00;99840.38;5039317;28;20392;-85
2022/09/29 07:48:37;;;;;;;37.15;18.15;;;;;;;8.92;100.00;99847.84;5025107;28;20052;-86
2022/09/29 07:51:09;;;;;;;40.20;20.40;;;;;;;9.01;100.00;99846.16;5040696;28;20112;-86
2022/09/29 07:53:35;;;;;;;34.95;17.83;;;;;;;9.35;100.00;99857.66;5039572;28;20072;-86
2022/09/29 07:56:03;;;;;;;44.88;19.65;;;;;;;9.43;100.00;99850.63;5067229;28;20479;-86
2022/09/29 07:58:31;;;;;;;44.50;18.42;;;;;;;9.55;100.00;99852.25;5042396;28;20435;-85
2022/09/29 08:00:57;;;;;;;40.97;19.08;;;;;;;9.85;100.00;99853.16;5022672;28;20044;-86
2022/09/29 08:03:24;;;;;;;34.28;18.75;;;;;;;9.85;100.00;99864.09;5025462;28;20029;-86
2022/09/29 08:05:50;;;;;;;32.42;18.52;;;;;;;10.06;100.00;99858.53;5026309;28;20079;-86
2022/09/29 08:08:17;;;;;;;37.05;17.85;;;;;;;10.25;100.00;99874.09;5059833;28;20510;-86
2022/09/29 08:10:43;;;;;;;34.50;17.73;;;;;;;10.46;100.00;99871.22;5043233;28;20025;-86
2022/09/29 08:13:08;;;;;;;29.85;16.42;;;;;;;10.50;100.00;99878.13;5025095;28;20051;-86
2022/09/29 08:15:34;;;;;;;41.53;18.52;;;;;;;10.83;100.00;99876.78;5073942;28;20519;-86
2022/09/29 08:17:59;;;;;;;34.15;16.45;;;;;;;10.96;100.00;99881.09;5026784;28;20049;-86
2022/09/29 08:20:25;;;;;;;38.30;16.45;;;;;;;11.51;100.00;99885.75;5042816;28;20029;-86
2022/09/29 08:22:52;;;;;;;27.27;15.23;;;;;;;11.65;100.00;99877.03;5060156;28;20041;-86
2022/09/29 08:25:18;;;;;;;39.15;17.85;;;;;;;11.67;100.00;99885.97;5058001;28;20032;-86
2022/09/29 08:27:44;;;;;;;32.92;15.95;;;;;;;11.76;100.00;99879.56;5041205;28;20050;-86
2022/09/29 08:30:10;;;;;;;29.83;14.38;;;;;;;12.04;100.00;99879.56;5048410;28;20032;-86
2022/09/29 08:32:36;;;;;;;29.40;15.05;;;;;;;12.55;100.00;99890.03;5017070;28;20048;-85
2022/09/29 08:35:02;;;;;;;30.33;15.38;;;;;;;12.58;100.00;99889.69;5021480;28;20531;-85
2022/09/29 08:37:27;;;;;;;28.60;13.68;;;;;;;12.30;100.00;99896.13;5021468;28;20065;-85
2022/09/29 08:39:53;;;;;;;26.88;14.55;;;;;;;12.27;100.00;99899.19;5039591;28;20033;-85
2022/09/29 08:42:34;;;;;;;28.35;15.02;;;;;;;12.74;100.00;99898.06;5043780;28;20390;-85
2022/09/29 08:45:07;;;;;;;26.77;13.77;;;;;;;13.03;100.00;99902.41;5043262;28;20060;-85
2022/09/29 08:47:41;;;;;;;28.38;14.13;;;;;;;13.19;100.00;99901.66;5044629;28;20078;-85
2022/09/29 08:50:21;;;;;;;21.52;13.70;;;;;;;13.47;100.00;99910.59;5029671;28;20062;-84
2022/09/29 08:52:53;;;;;;;30.42;14.35;;;;;;;13.28;100.00;99902.56;5062097;28;20021;-84
2022/09/29 08:55:19;;;;;;;24.45;13.23;;;;;;;13.66;100.00;99894.88;5062021;28;20025;-83
2022/09/29 08:57:52;;;;;;;28.45;12.73;;;;;;;13.49;100.00;99902.19;5063142;28;20067;-84
2022/09/29 09:00:18;;;;;;;21.80;12.65;;;;;;;13.46;100.00;99908.00;5062456;28;20037;-85
2022/09/29 09:03:03;;;;;;;25.88;13.43;;;;;;;13.65;100.00;99904.16;5045847;28;20040;-84
2022/09/29 09:06:07;;;;;;;26.55;12.15;;;;;;;13.81;100.00;99904.22;5062068;28;20084;-84
2022/09/29 09:08:47;;;;;;;27.10;12.68;;;;;;;14.12;100.00;99910.00;5061732;28;20056;-84
2022/09/29 09:11:39;;;;;;;19.95;12.98;;;;;;;13.75;100.00;99908.50;5049571;28;20488;-83
2022/09/29 09:14:44;;;;;;;24.13;12.68;;;;;;;14.07;100.00;99906.00;5062119;28;20116;-86
2022/09/29 09:17:28;;;;;;;27.45;12.30;;;;;;;14.24;100.00;99915.19;5062425;28;20369;-84
2022/09/29 09:20:10;;;;;;;22.33;11.95;;;;;;;14.36;100.00;99908.31;5077811;28;20037;-84
2022/09/29 09:22:54;;;;;;;22.80;12.38;;;;;;;14.25;100.00;99914.16;5044534;28;20036;-84
2022/09/29 09:25:31;;;;;;;20.15;10.70;;;;;;;14.22;100.00;99920.88;5061535;28;20026;-84
2022/09/29 09:28:15;;;;;;;22.35;10.10;;;;;;;14.12;100.00;99922.91;5060248;28;20040;-84
2022/09/29 09:30:52;;;;;;;17.27;10.57;;;;;;;14.62;100.00;99924.75;5059233;28;20455;-84
2022/09/29 09:33:43;;;;;;;20.25;11.02;;;;;;;14.58;100.00;99919.72;5060107;28;20111;-84
2022/09/29 09:36:15;;;;;;;18.80;10.80;;;;;;;14.59;100.00;99925.06;5043401;28;20029;-84
2022/09/29 09:38:55;;;;;;;17.77;9.50;;;;;;;14.94;100.00;99916.66;5042630;28;20493;-84
2022/09/29 09:41:23;;;;;;;18.98;9.43;;;;;;;14.92;100.00;99921.47;5061393;28;20330;-84
2022/09/29 09:43:57;;;;;;;23.75;9.52;;;;;;;14.70;100.00;99919.22;5040385;28;21122;-84
2022/09/29 09:46:46;;;;;;;22.55;10.35;;;;;;;14.83;100.00;99923.38;5058719;28;20036;-84
2022/09/29 09:49:33;;;;;;;19.73;10.10;;;;;;;14.89;100.00;99933.72;5040192;28;20183;-84
2022/09/29 09:51:59;;;;;;;19.83;9.35;;;;;;;14.78;100.00;99929.41;5050066;28;20044;-85
2022/09/29 09:54:42;;;;;;;13.27;8.93;;;;;;;14.84;100.00;99928.72;5055924;28;20065;-84
2022/09/29 09:57:08;;;;;;;22.65;9.13;;;;;;;15.09;100.00;99927.88;5057121;28;20040;-84
2022/09/29 10:00:09;;;;;;;19.98;8.10;;;;;;;15.10;100.00;99930.41;5056239;28;20026;-84
2022/09/29 10:02:40;;;;;;;15.27;7.43;;;;;;;14.81;100.00;99934.56;5074347;28;20033;-83
2022/09/29 10:05:12;;;;;;;14.10;8.38;;;;;;;15.10;100.00;99933.16;5057946;28;20073;-83
2022/09/29 10:07:37;;;;;;;17.63;8.30;;;;;;;15.12;100.00;99935.75;5060315;28;20552;-83
2022/09/29 10:10:12;;;;;;;18.73;8.85;;;;;;;15.37;100.00;99933.84;5027026;28;20048;-83
2022/09/29 10:12:37;;;;;;;12.82;8.85;;;;;;;15.25;100.00;99936.97;5060523;28;20029;-83
2022/09/29 10:15:16;;;;;;;15.15;6.65;;;;;;;15.47;100.00;99937.25;5025395;28;20545;-84
2022/09/29 10:17:45;;;;;;;17.88;7.60;;;;;;;15.42;100.00;99942.44;5042483;28;20044;-83
2022/09/29 10:20:11;;;;;;;14.82;7.95;;;;;;;15.19;100.00;99932.13;5058742;28;20503;-83
2022/09/29 10:22:37;;;;;;;14.25;7.10;;;;;;;15.44;100.00;99945.88;5025947;28;20033;-83
2022/09/29 10:25:19;;;;;;;12.57;7.35;;;;;;;15.23;100.00;99938.16;5041268;28;20033;-84
2022/09/29 10:27:51;;;;;;;13.00;7.20;;;;;;;15.52;100.00;99936.72;5057305;28;20121;-83
2022/09/29 10:30:19;;;;;;;12.48;6.95;;;;;;;15.58;100.00;99939.66;5055508;28;20040;-83
2022/09/29 10:32:45;;;;;;;12.48;6.03;;;;;;;15.51;100.00;99940.53;5039146;28;20041;-84
2022/09/29 10:35:26;;;;;;;15.10;6.60;;;;;;;15.84;100.00;99945.97;5032709;28;20037;-84
2022/09/29 10:38:14;;;;;;;13.25;7.18;;;;;;;15.80;100.00;99939.94;5057153;28;20052;-83
2022/09/29 10:40:57;;;;;;;17.13;7.65;;;;;;;15.12;100.00;99941.28;5058758;28;20532;-83
2022/09/29 10:43:25;;;;;;;12.18;7.35;;;;;;;14.71;100.00;99942.16;5058165;28;20021;-84
2022/09/29 10:45:57;;;;;;;15.30;7.57;;;;;;;14.98;100.00;99953.88;5058698;28;20029;-83
2022/09/29 10:48:24;;;;;;;15.18;6.82;;;;;;;15.40;100.00;99955.56;5055506;28;20036;-84
2022/09/29 10:50:53;;;;;;;9.32;5.82;;;;;;;14.76;100.00;99952.63;5055093;28;20124;-84
2022/09/29 10:53:26;;;;;;;14.88;7.10;;;;;;;14.79;100.00;99944.91;5038923;28;20041;-83
2022/09/29 10:55:55;;;;;;;;;;;;;;;14.44;100.00;99944.13;5029139;28;20036;-84
2022/09/29 10:58:29;;;;;;;16.92;7.25;;;;;;;14.32;100.00;99948.25;5057944;28;19996;-84
2022/09/29 11:01:26;;;;;;;10.25;6.57;;;;;;;15.15;100.00;99950.09;5057397;28;20075;-83
2022/09/29 11:04:00;;;;;;;11.73;6.45;;;;;;;15.39;100.00;99942.78;5027336;28;20396;-84
2022/09/29 11:06:31;;;;;;;9.18;5.88;;;;;;;15.70;100.00;99951.16;5041491;28;20479;-85
2022/09/29 11:09:14;;;;;;;14.68;6.40;;;;;;;15.61;100.00;99950.34;5041911;28;20472;-83
2022/09/29 11:11:53;;;;;;;8.48;5.57;;;;;;;15.89;100.00;99952.69;5059462;28;20127;-83
2022/09/29 11:14:29;;;;;;;10.90;5.72;;;;;;;15.71;100.00;99952.91;5057786;28;20037;-84
2022/09/29 11:16:58;;;;;;;7.82;5.43;;;;;;;15.80;100.00;99960.13;5056867;28;20033;-84
2022/09/29 11:19:24;;;;;;;8.50;5.63;;;;;;;15.20;100.00;99953.19;5060565;28;20043;-84
2022/09/29 11:22:17;;;;;;;12.40;6.18;;;;;;;14.98;100.00;99953.88;5038622;28;20467;-83
2022/09/29 11:24:49;;;;;;;12.43;6.30;;;;;;;14.56;100.00;99952.06;5036752;28;20096;-83
2022/09/29 11:27:30;;;;;;;16.23;6.85;;;;;;;14.38;100.00;99949.47;5060103;28;20016;-84
2022/09/29 11:30:14;;;;;;;11.63;6.25;;;;;;;14.43;100.00;99953.44;5059129;28;20071;-84
2022/09/29 11:32:56;;;;;;;12.85;6.65;;;;;;;14.30;100.00;99953.94;5055764;28;20037;-83
2022/09/29 11:35:42;;;;;;;14.80;7.85;;;;;;;14.19;100.00;99953.38;5058135;28;20037;-84